Latest Weather Observations for Grafton Airport

IDN60801

Issued at 2:34 pm EDT Thursday 18 December 2014 (issued every 30 minutes, with the page automatically refreshed every 10 minutes)

About weather observations | Map of weather stations | Latest weather observations for NSW | Other Formats
Station Details ID: 058161 Name: GRAFTON AIRPORT AWS Lat: -29.76 Lon: 153.03 Height: 25.09 m
Data from the previous 72 hours. | See also: Recent months for locations in New South Wales
Date/Time
EDT
Temp
°C
App
Temp
°C
Dew
Point
Rel
Hum
%
Delta-T
°C
Wind Press
QNH
hPa
Press
MSL
hPa
Rain
since 9 am
mm
Dir
 
Spd
km/h
Gust
km/h
Spd
kts
Gust
kts
18/02:30pm 30.3 31.1 21.7 60 5.8 N 20 28 11 15 1005.4 1005.3 3.4
18/02:00pm 30.5 31.5 22.1 61 5.7 N 20 28 11 15 1006.6 1006.5 3.4
18/01:30pm 28.9 29.8 21.9 66 4.7 N 20 26 11 14 1007.3 1007.2 3.4
18/01:00pm 27.9 30.1 21.9 70 4.0 NNE 13 19 7 10 1007.7 1007.6 3.4
18/12:30pm 26.7 29.2 21.7 74 3.3 NNE 11 19 6 10 1008.2 1008.1 3.4
18/12:18pm 25.9 29.1 22.4 81 2.4 NNE 9 15 5 8 1008.5 1008.4 3.4
18/12:00pm 24.3 24.9 21.4 84 1.9 NNE 20 28 11 15 1008.1 1008.0 3.4
18/11:48am 24.7 25.0 20.8 79 2.6 N 20 26 11 14 1009.2 1009.1 1.8
18/11:30am 26.8 28.2 21.8 74 3.3 NNE 17 22 9 12 1009.4 1009.3 0.8
18/11:00am 25.0 28.1 22.1 84 1.9 NE 9 19 5 10 1009.2 1009.1 0.4
18/10:30am 26.5 28.4 21.3 73 3.5 N 13 17 7 9 1009.4 1009.3 0.0
18/10:00am 25.2 26.8 20.7 76 3.0 NE 13 17 7 9 1009.4 1009.3 0.0
18/09:30am 24.7 27.1 20.8 79 2.6 ENE 9 13 5 7 1009.7 1009.6 0.0
18/09:16am 24.0 28.3 21.1 84 1.9 CALM 0 0 0 0 1009.7 1009.6 0.0
18/09:00am 23.8 27.3 20.3 81 2.3 WNW 2 7 1 4 1009.8 1009.7 3.6
18/08:49am 24.8 27.8 20.1 75 3.1 SW 4 9 2 5 1009.8 1009.7 1.6
18/08:30am 24.5 27.8 20.0 76 2.9 SW 2 7 1 4 1009.7 1009.6 1.0
18/08:00am 22.9 26.5 19.7 82 2.1 CALM 0 6 0 3 1009.6 1009.5 1.0
18/07:30am 21.8 25.6 20.1 90 1.1 CALM 0 6 0 3 1009.5 1009.4 1.0
18/07:00am 21.0 23.6 20.0 94 0.6 SSW 6 7 3 4 1009.7 1009.6 1.0
18/06:30am 20.6 23.9 19.9 96 0.4 SSW 2 9 1 5 1009.9 1009.8 1.0
18/06:00am 20.3 22.6 19.8 97 0.3 SSW 7 11 4 6 1010.0 1009.9 1.0
18/05:30am 20.0 22.0 19.2 95 0.5 WSW 7 9 4 5 1009.7 1009.6 1.0
18/05:00am 20.4 21.4 19.4 94 0.6 S 13 15 7 8 1009.4 1009.3 1.0
18/04:30am 20.4 22.5 19.4 94 0.6 SW 7 11 4 6 1009.8 1009.7 1.0
18/04:00am 20.5 22.6 19.3 93 0.8 N 7 9 4 5 1009.4 1009.3 1.0
18/03:30am 21.0 21.8 19.8 93 0.8 ENE 15 20 8 11 1009.5 1009.4 1.0
18/03:00am 21.3 23.9 20.1 93 0.8 ESE 6 11 3 6 1010.0 1009.9 1.0
18/02:30am 21.2 23.1 19.8 92 0.9 S 9 11 5 6 1010.2 1010.1 0.8
18/02:00am 21.1 23.3 19.6 91 1.0 SSW 7 11 4 6 1010.4 1010.3 0.8
18/01:30am 20.9 22.6 19.4 91 1.0 WSW 9 17 5 9 1009.4 1009.3 0.8
18/01:00am 21.3 22.9 19.2 88 1.3 NE 9 13 5 7 1008.7 1008.6 0.8
18/12:30am 21.6 22.1 19.2 86 1.5 ENE 15 20 8 11 1010.0 1009.9 0.8
18/12:00am 22.1 24.3 19.1 83 1.9 SW 6 9 3 5 1011.5 1011.4 0.4
 
Date/Time
EDT
Temp
°C
App
Temp
°C
Dew
Point
Rel
Hum
%
Delta-T
°C
Wind Press
QNH
hPa
Press
MSL
hPa
Rain
since 9 am
mm
Dir
 
Spd
km/h
Gust
km/h
Spd
kts
Gust
kts
17/11:30pm 21.9 24.0 19.3 85 1.7 W 7 15 4 8 1010.9 1010.8 0.4
17/11:00pm 21.8 23.3 19.0 84 1.8 SW 9 15 5 8 1010.0 1009.9 0.4
17/10:30pm 22.2 22.6 19.0 82 2.0 SW 15 22 8 12 1008.8 1008.7 0.4
17/10:00pm 22.6 20.9 19.0 80 2.3 SE 26 37 14 20 1008.0 1007.9 0.4
17/09:30pm 23.9 24.0 18.3 71 3.5 S 15 26 8 14 1010.0 1009.9 0.2
17/09:00pm 23.8 23.1 18.7 73 3.2 SSE 20 41 11 22 1008.8 1008.7 0.2
17/08:30pm 23.9 21.1 19.0 74 3.1 S 32 43 17 23 1008.6 1008.5 0.2
17/08:00pm 24.3 23.7 18.9 72 3.4 SSE 20 35 11 19 1007.5 1007.4 0.2
17/07:30pm 24.5 23.2 19.1 72 3.4 SSE 24 43 13 23 1006.7 1006.6 0.2
17/07:00pm 24.8 23.7 19.4 72 3.5 SSE 24 39 13 21 1006.0 1005.9 0.2
17/06:30pm 25.4 23.2 19.5 70 3.8 SSE 30 43 16 23 1005.4 1005.3 0.2
17/06:05pm 26.4 24.3 19.8 67 4.3 SSE 30 48 16 26 1004.5 1004.4 0.2
17/06:00pm 26.6 25.4 20.0 67 4.3 SSE 26 39 14 21 1004.4 1004.2 0.2
17/05:37pm 26.7 25.0 19.8 66 4.5 SSE 28 46 15 25 1003.8 1003.6 0.2
17/05:30pm 27.3 24.9 19.9 64 4.8 SSE 32 46 17 25 1003.7 1003.5 0.2
17/05:25pm 27.7 26.0 19.8 62 5.2 SSE 28 46 15 25 1003.6 1003.4 0.2
17/05:00pm 29.6 28.7 19.9 56 6.4 SE 24 44 13 24 1003.0 1002.8 0.2
17/04:30pm 31.3 29.7 18.3 46 8.4 SE 24 35 13 19 1002.6 1002.4 0.2
17/04:08pm 34.0 30.6 16.8 35 11.0 S 30 54 16 29 1002.4 1002.2 0.2
17/04:05pm 34.1 31.5 16.0 34 11.4 SW 24 54 13 29 1002.4 1002.2 0.2
17/04:03pm 34.9 33.0 15.3 31 12.3 W 19 54 10 29 1002.2 1002.0 0.2
17/04:00pm 38.6 36.8 10.9 19 16.6 NW 11 20 6 11 1002.1 1001.9 0.2
17/03:30pm 38.8 36.7 11.0 19 16.6 NW 13 22 7 12 1001.7 1001.5 0.2
17/03:00pm 37.7 36.3 12.3 22 15.4 NNW 11 20 6 11 1002.0 1001.8 0.2
17/02:30pm 37.4 35.4 12.8 23 15.0 NNW 15 22 8 12 1002.3 1002.1 0.2
17/02:00pm 37.6 37.7 16.5 28 13.6 NNE 11 19 6 10 1002.5 1002.3 0.2
17/01:30pm 37.4 38.5 17.9 31 12.7 NNW 9 17 5 9 1002.8 1002.6 0.2
17/01:00pm 35.4 36.9 18.9 37 10.9 NNW 9 15 5 8 1003.2 1003.0 0.2
17/12:30pm 34.7 37.4 20.6 43 9.5 NW 7 15 4 8 1003.5 1003.3 0.2
17/12:00pm 33.7 35.8 20.1 44 9.1 NNW 9 13 5 7 1003.8 1003.6 0.2
17/11:30am 32.2 34.1 19.8 48 8.2 NNW 9 15 5 8 1004.1 1003.9 0.2
17/11:00am 31.2 33.0 19.5 49 7.7 NNW 9 15 5 8 1004.2 1004.0 0.2
17/10:30am 30.1 31.2 18.8 50 7.3 N 11 15 6 8 1004.4 1004.2 0.2
17/10:00am 29.2 30.4 18.3 51 7.0 NNW 9 15 5 8 1004.5 1004.4 0.0
17/09:30am 27.7 29.1 18.7 58 5.8 NNW 9 15 5 8 1004.8 1004.7 0.0
17/09:24am 27.5 29.2 19.3 61 5.3 NNW 9 15 5 8 1004.8 1004.7 0.0
17/09:00am 26.6 27.8 18.2 60 5.3 NNW 9 15 5 8 1005.0 1004.9 8.6
17/08:30am 25.5 28.1 20.1 72 3.5 NW 6 11 3 6 1005.2 1005.1 8.6
17/08:21am 25.0 27.3 19.4 71 3.6 NW 6 9 3 5 1005.2 1005.1 8.6
17/08:00am 23.6 26.3 19.5 78 2.6 NNE 4 7 2 4 1005.4 1005.3 8.6
17/07:48am 23.2 26.9 20.0 82 2.1 CALM 0 0 0 0 1005.2 1005.1 8.6
17/07:30am 22.2 25.1 19.9 87 1.5 NW 4 9 2 5 1005.0 1004.9 8.6
17/07:29am 22.2 25.1 19.9 87 1.5 NW 4 9 2 5 1005.0 1004.9 8.6
17/07:00am 20.8 23.7 19.8 94 0.6 NNW 4 7 2 4 1004.9 1004.8 8.6
17/06:44am 20.4 24.0 19.7 96 0.4 CALM 0 0 0 0 1004.8 1004.7 8.6
17/06:30am 19.8 23.2 19.3 97 0.3 CALM 0 0 0 0 1004.6 1004.5 8.6
17/06:00am 19.0 22.0 18.5 97 0.3 CALM 0 0 0 0 1004.2 1004.0 8.6
17/05:30am 19.1 22.0 18.1 94 0.6 CALM 0 0 0 0 1004.1 1003.9 8.6
17/05:00am 20.1 23.6 19.6 97 0.3 CALM 0 6 0 3 1004.1 1003.9 8.6
17/04:48am 20.3 23.8 19.5 95 0.5 CALM 0 0 0 0 1004.0 1003.8 8.6
17/04:32am 20.4 24.0 19.7 96 0.4 CALM 0 0 0 0 1004.0 1003.8 8.6
17/04:30am 20.5 24.1 19.8 96 0.4 CALM 0 0 0 0 1004.0 1003.8 8.6
17/04:07am 20.4 22.7 19.4 94 0.6 NW 6 7 3 4 1003.9 1003.7 8.6
17/04:00am 20.7 23.9 19.7 94 0.6 NW 2 6 1 3 1004.0 1003.8 8.6
17/03:30am 21.0 24.6 19.8 93 0.8 CALM 0 0 0 0 1004.0 1003.8 8.6
17/03:00am 21.3 24.7 20.1 93 0.8 NW 2 9 1 5 1004.2 1004.0 8.6
17/02:33am 21.3 23.8 20.3 94 0.6 NNW 7 11 4 6 1004.7 1004.6 8.4
17/02:30am 21.3 23.9 20.5 95 0.5 NW 7 11 4 6 1004.9 1004.8 8.4
17/02:00am 21.3 24.9 20.6 96 0.5 NNW 2 7 1 4 1005.4 1005.3 8.4
17/01:30am 21.1 24.7 20.6 97 0.3 NNW 2 11 1 6 1006.1 1006.0 8.4
17/01:19am 21.0 24.2 20.5 97 0.3 WNW 4 9 2 5 1006.1 1006.0 8.4
17/01:00am 21.0 24.9 20.3 96 0.5 CALM 0 6 0 3 1006.1 1006.0 8.4
17/12:30am 20.9 24.7 20.1 95 0.5 CALM 0 0 0 0 1006.2 1006.1 8.2
17/12:00am 20.8 24.5 20.0 95 0.5 CALM 0 6 0 3 1006.4 1006.3 8.2
 
Date/Time
EDT
Temp
°C
App
Temp
°C
Dew
Point
Rel
Hum
%
Delta-T
°C
Wind Press
QNH
hPa
Press
MSL
hPa
Rain
since 9 am
mm
Dir
 
Spd
km/h
Gust
km/h
Spd
kts
Gust
kts
16/11:30pm 20.8 23.8 20.0 95 0.5 NNW 4 7 2 4 1007.1 1007.0 8.2
16/11:00pm 20.9 24.7 20.1 95 0.5 CALM 0 0 0 0 1007.5 1007.4 8.2
16/10:30pm 21.2 24.7 20.4 95 0.5 NW 2 6 1 3 1007.3 1007.2 8.0
16/10:00pm 21.2 22.5 20.2 94 0.6 E 13 19 7 10 1006.9 1006.8 8.0
16/09:48pm 21.3 21.8 20.1 93 0.8 ENE 17 20 9 11 1007.1 1007.0 8.0
16/09:30pm 21.2 21.6 19.8 92 0.9 SE 17 33 9 18 1008.1 1008.0 7.8
16/09:17pm 22.4 23.5 19.6 84 1.8 WSW 13 24 7 13 1009.7 1009.6 1.0
16/09:12pm 22.5 23.9 19.5 83 1.9 W 11 24 6 13 1009.9 1009.8 0.2
16/09:00pm 22.9 24.2 19.3 80 2.3 SSW 11 15 6 8 1007.9 1007.8 0.0
16/08:58pm 23.1 24.8 19.3 79 2.4 SSW 9 15 5 8 1007.7 1007.6 0.0
16/08:30pm 23.5 25.3 18.8 75 3.0 E 7 11 4 6 1005.7 1005.6 0.0
16/08:00pm 23.5 23.7 18.6 74 3.1 NE 15 20 8 11 1005.2 1005.1 0.0
16/07:30pm 23.9 24.4 18.3 71 3.5 NE 13 20 7 11 1004.8 1004.7 0.0
16/07:00pm 24.6 24.7 18.3 68 4.0 NE 15 20 8 11 1004.6 1004.5 0.0
16/06:30pm 25.5 24.7 17.9 63 4.8 ENE 19 26 10 14 1004.2 1004.0 0.0
16/06:00pm 26.0 25.5 17.9 61 5.1 ENE 17 26 9 14 1003.9 1003.7 0.0
16/05:30pm 26.5 25.7 18.1 60 5.3 NE 19 26 10 14 1003.7 1003.5 0.0
16/05:00pm 27.6 26.9 18.6 58 5.8 ENE 20 30 11 16 1003.6 1003.4 0.0
16/04:30pm 27.7 26.7 17.5 53 6.4 NE 19 26 10 14 1004.5 1004.4 0.0
16/04:00pm 28.4 27.0 17.0 50 7.2 NNE 20 26 11 14 1004.8 1004.7 0.0
16/03:30pm 30.3 29.6 17.4 46 8.2 NE 17 26 9 14 1004.9 1004.8 0.0
16/03:00pm 30.5 30.0 16.9 44 8.6 NNE 15 26 8 14 1005.1 1005.0 0.0
16/02:30pm 28.9 27.4 14.3 40 8.8 N 15 22 8 12 1005.5 1005.4 0.0
16/02:17pm 29.6 28.9 16.4 45 8.2 N 15 20 8 11 1005.6 1005.5 0.0
16/02:00pm 29.3 28.0 16.8 47 7.9 N 19 26 10 14 1005.7 1005.6 0.0
16/01:30pm 28.7 27.8 15.9 45 7.9 NNE 15 24 8 13 1006.3 1006.2 0.0
16/01:22pm 28.9 28.4 15.8 45 8.1 NNE 13 22 7 12 1006.4 1006.3 0.0
16/01:04pm 28.8 28.6 17.7 51 7.0 N 15 24 8 13 1006.9 1006.8 0.0
16/01:00pm 28.5 27.8 16.4 48 7.5 N 15 24 8 13 1007.1 1007.0 0.0
16/12:30pm 28.0 27.6 17.2 52 6.8 N 15 28 8 15 1007.6 1007.5 0.0
16/12:00pm 26.9 26.4 15.9 51 6.8 N 13 22 7 12 1007.7 1007.6 0.0
16/11:30am 26.2 25.5 15.3 51 6.6 N 13 24 7 13 1008.6 1008.5 0.0
16/11:26am 26.3 25.8 16.0 53 6.3 N 13 24 7 13 1008.7 1008.6 0.0
16/11:09am 25.3 25.1 14.7 51 6.3 NNW 9 19 5 10 1009.0 1008.9 0.0
16/11:00am 25.6 25.5 15.0 52 6.4 NNE 9 15 5 8 1008.9 1008.8 0.0
16/10:30am 25.1 23.6 15.4 55 5.9 N 17 24 9 13 1009.6 1009.5 0.0
16/10:00am 24.2 23.4 15.1 56 5.5 NNW 13 20 7 11 1009.7 1009.6 0.0
16/09:30am 23.7 23.4 14.4 56 5.5 NNW 9 15 5 8 1010.0 1009.9 0.0
16/09:00am 22.4 22.3 15.0 63 4.4 NNW 9 13 5 7 1010.0 1009.9 0.0
16/08:30am 20.9 22.1 14.8 68 3.6 N 2 9 1 5 1010.4 1010.3 0.0
16/08:00am 19.4 21.0 14.9 75 2.6 CALM 0 4 0 2 1010.8 1010.7 0.0
16/07:30am 17.5 19.1 15.0 85 1.5 CALM 0 0 0 0 1010.7 1010.6 0.0
16/07:00am 16.0 17.4 14.4 90 0.9 CALM 0 0 0 0 1010.3 1010.2 0.0
16/06:30am 14.5 15.6 13.5 94 0.6 CALM 0 0 0 0 1010.3 1010.2 0.0
16/06:00am 13.9 14.8 12.8 93 0.6 CALM 0 0 0 0 1009.9 1009.8 0.0
16/05:30am 14.6 15.7 13.5 93 0.6 CALM 0 0 0 0 1009.8 1009.7 0.0
16/05:00am 15.0 16.1 13.5 91 0.8 CALM 0 0 0 0 1010.0 1009.9 0.0
16/04:30am 15.3 16.3 13.3 88 1.1 CALM 0 0 0 0 1009.8 1009.7 0.0
16/04:00am 15.7 16.9 13.9 89 1.0 CALM 0 0 0 0 1010.0 1009.9 0.0
16/03:30am 16.2 17.6 14.4 89 1.0 CALM 0 0 0 0 1009.8 1009.7 0.0
16/03:00am 16.3 17.7 14.3 88 1.1 CALM 0 0 0 0 1010.3 1010.2 0.0
16/02:30am 15.5 16.7 13.9 90 0.9 CALM 0 0 0 0 1010.7 1010.6 0.0
16/02:00am 14.9 15.9 13.1 89 1.0 CALM 0 0 0 0 1010.8 1010.7 0.0
16/01:30am 15.1 16.0 13.0 87 1.2 CALM 0 0 0 0 1011.0 1010.9 0.0
16/01:00am 15.8 16.8 13.3 85 1.4 CALM 0 0 0 0 1011.4 1011.3 0.0
16/12:30am 16.2 16.6 13.7 85 1.4 S 4 7 2 4 1011.7 1011.6 0.0
16/12:00am 16.7 17.1 13.6 82 1.7 S 4 7 2 4 1012.1 1012.0 0.0
 
Date/Time
EDT
Temp
°C
App
Temp
°C
Dew
Point
Rel
Hum
%
Delta-T
°C
Wind Press
QNH
hPa
Press
MSL
hPa
Rain
since 9 am
mm
Dir
 
Spd
km/h
Gust
km/h
Spd
kts
Gust
kts
15/11:30pm 16.8 16.6 13.5 81 1.9 SSW 7 9 4 5 1012.3 1012.2 0.0
15/11:00pm 17.2 18.3 13.5 79 2.1 CALM 0 0 0 0 1012.4 1012.3 0.0
15/10:30pm 17.5 18.5 13.2 76 2.4 CALM 0 0 0 0 1012.5 1012.4 0.0
15/10:00pm 17.7 18.8 13.4 76 2.4 CALM 0 0 0 0 1012.5 1012.4 0.0
15/09:30pm 18.6 18.4 13.5 72 2.9 S 7 9 4 5 1012.2 1012.1 0.0
15/09:00pm 19.3 20.2 13.0 67 3.6 CALM 0 6 0 3 1012.0 1011.9 0.0
15/08:30pm 20.7 21.5 12.7 60 4.5 CALM 0 0 0 0 1011.8 1011.7 0.0
15/08:00pm 21.3 21.0 12.7 58 4.9 ESE 6 7 3 4 1011.7 1011.6 0.0
15/07:30pm 22.3 21.3 12.3 53 5.7 ESE 9 13 5 7 1011.6 1011.5 0.0
15/07:00pm 23.2 21.8 12.2 50 6.3 E 11 17 6 9 1011.2 1011.1 0.0
15/06:30pm 23.1 21.4 12.4 51 6.1 E 13 22 7 12 1010.9 1010.8 0.0
15/06:00pm 24.3 22.6 12.6 48 6.7 E 13 20 7 11 1010.5 1010.4 0.0
15/05:30pm 24.4 22.1 13.0 49 6.6 E 17 26 9 14 1010.2 1010.1 0.0
15/05:00pm 24.1 22.3 13.3 51 6.3 E 15 22 8 12 1010.0 1009.9 0.0
15/04:30pm 24.1 21.6 12.4 48 6.7 ESE 17 32 9 17 1009.9 1009.8 0.0
15/04:00pm 25.8 23.2 13.3 46 7.3 ESE 19 28 10 15 1009.8 1009.7 0.0
15/03:30pm 25.6 22.9 12.8 45 7.4 SE 19 30 10 16 1010.0 1009.9 0.0
15/03:00pm 26.0 23.5 15.1 51 6.6 ESE 22 35 12 19 1010.0 1009.9 0.0

Other Formats:

Comma delimited format used in spreadsheet applications
http://www.bom.gov.au/fwo/IDN60801/IDN60801.95570.axf

JavaScript Object Notation format (JSON) in row-major order
http://www.bom.gov.au/fwo/IDN60801/IDN60801.95570.json